sensor_id;sensor_type;location;lat;lon;timestamp;pressure;altitude;pressure_sealevel;temperature;humidity
25420;BME280;13354;48.174;11.566;2022-09-30T00:02:07;94787.88;;;9.12;100.00
25420;BME280;13354;48.174;11.566;2022-09-30T00:04:34;94791.56;;;9.11;100.00
25420;BME280;13354;48.174;11.566;2022-09-30T00:06:59;94793.56;;;9.09;100.00
25420;BME280;13354;48.174;11.566;2022-09-30T00:09:24;94792.97;;;9.07;100.00
25420;BME280;13354;48.174;11.566;2022-09-30T00:11:50;94798.84;;;9.15;100.00
25420;BME280;13354;48.174;11.566;2022-09-30T00:14:16;94794.19;;;9.11;100.00
25420;BME280;13354;48.174;11.566;2022-09-30T00:16:42;94794.78;;;9.13;100.00
25420;BME280;13354;48.174;11.566;2022-09-30T00:19:07;94795.41;;;9.08;100.00
25420;BME280;13354;48.174;11.566;2022-09-30T00:21:33;94794.59;;;9.14;100.00
25420;BME280;13354;48.174;11.566;2022-09-30T00:23:58;94795.63;;;9.13;100.00
25420;BME280;13354;48.174;11.566;2022-09-30T00:26:24;94798.66;;;9.10;100.00
25420;BME280;13354;48.174;11.566;2022-09-30T00:28:50;94804.75;;;9.04;100.00
25420;BME280;13354;48.174;11.566;2022-09-30T00:31:15;94799.69;;;9.03;100.00
25420;BME280;13354;48.174;11.566;2022-09-30T00:33:42;94798.03;;;9.08;100.00
25420;BME280;13354;48.174;11.566;2022-09-30T00:36:07;94793.97;;;9.12;100.00
25420;BME280;13354;48.174;11.566;2022-09-30T00:38:32;94795.00;;;9.11;100.00
25420;BME280;13354;48.174;11.566;2022-09-30T00:40:58;94795.81;;;9.25;100.00
25420;BME280;13354;48.174;11.566;2022-09-30T00:46:05;94798.63;;;9.24;100.00
25420;BME280;13354;48.174;11.566;2022-09-30T00:48:35;94787.06;;;9.18;100.00
25420;BME280;13354;48.174;11.566;2022-09-30T00:51:03;94781.19;;;9.23;100.00
25420;BME280;13354;48.174;11.566;2022-09-30T00:56:07;94797.84;;;9.10;100.00
25420;BME280;13354;48.174;11.566;2022-09-30T00:58:35;94795.22;;;9.03;100.00
25420;BME280;13354;48.174;11.566;2022-09-30T01:01:01;94798.25;;;9.07;100.00
25420;BME280;13354;48.174;11.566;2022-09-30T01:03:30;94791.78;;;9.03;100.00
25420;BME280;13354;48.174;11.566;2022-09-30T01:05:57;94818.75;;;8.98;100.00
25420;BME280;13354;48.174;11.566;2022-09-30T01:08:22;94823.84;;;9.00;100.00
25420;BME280;13354;48.174;11.566;2022-09-30T01:10:48;94830.16;;;8.99;100.00
25420;BME280;13354;48.174;11.566;2022-09-30T01:13:15;94832.38;;;9.02;100.00
25420;BME280;13354;48.174;11.566;2022-09-30T01:34:08;94842.94;;;9.15;100.00
25420;BME280;13354;48.174;11.566;2022-09-30T01:39:25;94838.66;;;9.07;100.00
25420;BME280;13354;48.174;11.566;2022-09-30T01:41:52;94846.81;;;9.06;100.00
25420;BME280;13354;48.174;11.566;2022-09-30T01:44:25;94849.03;;;9.02;100.00
25420;BME280;13354;48.174;11.566;2022-09-30T01:46:55;94846.59;;;9.01;100.00
25420;BME280;13354;48.174;11.566;2022-09-30T01:49:26;94850.84;;;9.02;100.00
25420;BME280;13354;48.174;11.566;2022-09-30T01:52:00;94852.09;;;9.06;100.00
25420;BME280;13354;48.174;11.566;2022-09-30T01:54:31;94851.47;;;9.10;100.00
25420;BME280;13354;48.174;11.566;2022-09-30T01:57:06;94851.66;;;9.09;100.00
25420;BME280;13354;48.174;11.566;2022-09-30T01:59:39;94854.31;;;9.09;100.00
25420;BME280;13354;48.174;11.566;2022-09-30T02:04:54;94864.66;;;9.04;100.00
25420;BME280;13354;48.174;11.566;2022-09-30T02:07:27;94860.59;;;9.08;100.00
25420;BME280;13354;48.174;11.566;2022-09-30T02:09:58;94860.00;;;9.06;100.00
25420;BME280;13354;48.174;11.566;2022-09-30T02:12:27;94854.72;;;9.06;100.00
25420;BME280;13354;48.174;11.566;2022-09-30T02:15:10;94859.59;;;9.02;100.00
25420;BME280;13354;48.174;11.566;2022-09-30T02:17:38;94849.44;;;9.06;100.00
25420;BME280;13354;48.174;11.566;2022-09-30T02:20:17;94849.44;;;9.12;100.00
25420;BME280;13354;48.174;11.566;2022-09-30T02:22:45;94847.00;;;9.11;100.00
25420;BME280;13354;48.174;11.566;2022-09-30T02:25:25;94842.75;;;9.10;100.00
25420;BME280;13354;48.174;11.566;2022-09-30T02:27:55;94846.19;;;9.10;100.00
25420;BME280;13354;48.174;11.566;2022-09-30T02:30:22;94837.25;;;9.05;100.00
25420;BME280;13354;48.174;11.566;2022-09-30T02:33:07;94835.41;;;9.05;100.00
25420;BME280;13354;48.174;11.566;2022-09-30T02:35:52;94838.06;;;9.18;100.00
25420;BME280;13354;48.174;11.566;2022-09-30T02:38:18;94830.94;;;9.19;100.00
25420;BME280;13354;48.174;11.566;2022-09-30T02:40:45;94834.59;;;9.11;100.00
25420;BME280;13354;48.174;11.566;2022-09-30T02:43:14;94840.69;;;9.05;100.00
25420;BME280;13354;48.174;11.566;2022-09-30T02:45:42;94841.13;;;9.02;100.00
25420;BME280;13354;48.174;11.566;2022-09-30T02:48:18;94845.38;;;8.97;100.00
25420;BME280;13354;48.174;11.566;2022-09-30T02:50:50;94848.22;;;8.95;100.00
25420;BME280;13354;48.174;11.566;2022-09-30T02:53:22;94857.13;;;8.94;100.00
25420;BME280;13354;48.174;11.566;2022-09-30T02:58:34;94861.00;;;8.98;100.00
25420;BME280;13354;48.174;11.566;2022-09-30T03:01:03;94852.25;;;8.91;100.00
25420;BME280;13354;48.174;11.566;2022-09-30T03:03:31;94857.75;;;8.89;100.00
25420;BME280;13354;48.174;11.566;2022-09-30T03:05:57;94868.53;;;8.88;100.00
25420;BME280;13354;48.174;11.566;2022-09-30T03:08:23;94871.16;;;8.88;100.00
25420;BME280;13354;48.174;11.566;2022-09-30T03:10:48;94863.25;;;8.88;100.00
25420;BME280;13354;48.174;11.566;2022-09-30T03:13:38;94870.13;;;8.89;100.00
25420;BME280;13354;48.174;11.566;2022-09-30T03:26:06;94882.72;;;8.80;100.00
25420;BME280;13354;48.174;11.566;2022-09-30T03:28:40;94893.47;;;8.79;100.00
25420;BME280;13354;48.174;11.566;2022-09-30T03:31:16;94901.19;;;8.87;100.00
25420;BME280;13354;48.174;11.566;2022-09-30T03:34:01;94896.50;;;8.82;100.00
25420;BME280;13354;48.174;11.566;2022-09-30T03:36:37;94902.81;;;8.81;100.00
25420;BME280;13354;48.174;11.566;2022-09-30T03:41:53;94910.13;;;8.86;100.00
25420;BME280;13354;48.174;11.566;2022-09-30T03:44:24;94908.53;;;8.91;100.00
25420;BME280;13354;48.174;11.566;2022-09-30T03:46:54;94908.31;;;8.93;100.00
25420;BME280;13354;48.174;11.566;2022-09-30T03:49:21;94900.59;;;8.91;100.00
25420;BME280;13354;48.174;11.566;2022-09-30T03:51:47;94912.78;;;8.92;100.00
25420;BME280;13354;48.174;11.566;2022-09-30T03:54:12;94910.56;;;8.96;100.00
25420;BME280;13354;48.174;11.566;2022-09-30T03:56:38;94910.16;;;8.99;100.00
25420;BME280;13354;48.174;11.566;2022-09-30T03:59:25;94912.81;;;9.06;100.00
25420;BME280;13354;48.174;11.566;2022-09-30T04:01:52;94905.09;;;9.17;100.00
25420;BME280;13354;48.174;11.566;2022-09-30T04:04:18;94917.91;;;9.14;100.00
25420;BME280;13354;48.174;11.566;2022-09-30T04:06:43;94919.09;;;9.05;100.00
25420;BME280;13354;48.174;11.566;2022-09-30T04:09:08;94924.19;;;9.06;100.00
25420;BME280;13354;48.174;11.566;2022-09-30T04:11:33;94923.56;;;9.04;100.00
25420;BME280;13354;48.174;11.566;2022-09-30T04:13:59;94918.47;;;9.09;100.00
25420;BME280;13354;48.174;11.566;2022-09-30T04:16:25;94929.69;;;9.25;100.00
25420;BME280;13354;48.174;11.566;2022-09-30T04:18:52;94932.91;;;9.20;99.28
25420;BME280;13354;48.174;11.566;2022-09-30T04:21:17;94939.63;;;9.16;99.07
25420;BME280;13354;48.174;11.566;2022-09-30T04:23:42;94934.72;;;9.13;98.95
25420;BME280;13354;48.174;11.566;2022-09-30T04:26:11;94929.66;;;9.05;98.82
25420;BME280;13354;48.174;11.566;2022-09-30T04:28:37;94939.00;;;9.01;99.35
25420;BME280;13354;48.174;11.566;2022-09-30T04:31:03;94937.13;;;8.94;99.67
25420;BME280;13354;48.174;11.566;2022-09-30T04:33:29;94933.91;;;8.92;99.99
25420;BME280;13354;48.174;11.566;2022-09-30T04:35:55;94933.69;;;8.87;100.00
25420;BME280;13354;48.174;11.566;2022-09-30T04:38:20;94944.03;;;8.89;100.00
25420;BME280;13354;48.174;11.566;2022-09-30T04:40:46;94950.97;;;8.97;100.00
25420;BME280;13354;48.174;11.566;2022-09-30T04:43:13;94944.88;;;8.96;100.00
25420;BME280;13354;48.174;11.566;2022-09-30T04:45:41;94947.72;;;9.01;100.00
25420;BME280;13354;48.174;11.566;2022-09-30T04:48:06;94955.44;;;8.96;100.00
25420;BME280;13354;48.174;11.566;2022-09-30T04:50:31;94958.84;;;8.90;100.00
25420;BME280;13354;48.174;11.566;2022-09-30T04:52:57;94959.66;;;8.90;100.00
25420;BME280;13354;48.174;11.566;2022-09-30T04:55:22;94960.88;;;8.94;100.00
25420;BME280;13354;48.174;11.566;2022-09-30T04:57:48;94967.81;;;8.95;100.00
25420;BME280;13354;48.174;11.566;2022-09-30T05:00:13;94963.97;;;9.05;99.54
25420;BME280;13354;48.174;11.566;2022-09-30T05:02:38;94965.22;;;9.02;99.27
25420;BME280;13354;48.174;11.566;2022-09-30T05:05:03;94969.66;;;8.95;99.43
25420;BME280;13354;48.174;11.566;2022-09-30T05:07:29;94972.06;;;8.90;99.87
25420;BME280;13354;48.174;11.566;2022-09-30T05:09:55;94967.59;;;8.90;100.00
25420;BME280;13354;48.174;11.566;2022-09-30T05:12:20;94965.13;;;8.82;100.00
25420;BME280;13354;48.174;11.566;2022-09-30T05:14:45;94964.53;;;8.80;100.00
25420;BME280;13354;48.174;11.566;2022-09-30T05:17:10;94965.31;;;8.74;100.00
25420;BME280;13354;48.174;11.566;2022-09-30T05:19:35;94966.72;;;8.70;100.00
25420;BME280;13354;48.174;11.566;2022-09-30T05:22:01;94968.94;;;8.66;100.00
25420;BME280;13354;48.174;11.566;2022-09-30T05:24:27;94979.69;;;8.65;100.00
25420;BME280;13354;48.174;11.566;2022-09-30T05:26:54;94986.59;;;8.66;100.00
25420;BME280;13354;48.174;11.566;2022-09-30T05:29:19;94982.72;;;8.68;100.00
25420;BME280;13354;48.174;11.566;2022-09-30T05:31:44;94984.19;;;8.71;100.00
25420;BME280;13354;48.174;11.566;2022-09-30T05:34:09;94986.84;;;8.78;100.00
25420;BME280;13354;48.174;11.566;2022-09-30T05:36:34;94984.81;;;8.80;100.00
25420;BME280;13354;48.174;11.566;2022-09-30T05:39:00;94987.44;;;8.80;100.00
25420;BME280;13354;48.174;11.566;2022-09-30T05:41:25;94997.78;;;8.75;100.00
25420;BME280;13354;48.174;11.566;2022-09-30T05:43:50;94991.53;;;8.82;100.00
25420;BME280;13354;48.174;11.566;2022-09-30T05:46:16;94998.03;;;8.86;100.00
25420;BME280;13354;48.174;11.566;2022-09-30T05:48:42;94993.00;;;8.91;100.00
25420;BME280;13354;48.174;11.566;2022-09-30T05:51:07;95003.38;;;9.00;100.00
25420;BME280;13354;48.174;11.566;2022-09-30T05:53:33;95001.50;;;8.93;100.00
25420;BME280;13354;48.174;11.566;2022-09-30T05:56:00;95010.25;;;9.01;100.00
25420;BME280;13354;48.174;11.566;2022-09-30T05:58:26;95011.06;;;9.01;100.00
25420;BME280;13354;48.174;11.566;2022-09-30T06:00:51;95018.59;;;8.98;100.00
25420;BME280;13354;48.174;11.566;2022-09-30T06:03:17;95018.97;;;8.94;100.00
25420;BME280;13354;48.174;11.566;2022-09-30T06:05:42;95032.81;;;8.97;100.00
25420;BME280;13354;48.174;11.566;2022-09-30T06:08:09;95025.50;;;8.99;100.00
25420;BME280;13354;48.174;11.566;2022-09-30T06:10:35;95026.50;;;8.98;100.00
25420;BME280;13354;48.174;11.566;2022-09-30T06:13:03;95022.88;;;8.99;100.00
25420;BME280;13354;48.174;11.566;2022-09-30T06:15:29;95029.56;;;9.01;100.00
25420;BME280;13354;48.174;11.566;2022-09-30T06:17:54;95029.78;;;9.00;100.00
25420;BME280;13354;48.174;11.566;2022-09-30T06:20:20;95035.84;;;9.00;100.00
25420;BME280;13354;48.174;11.566;2022-09-30T06:22:45;95043.19;;;9.05;100.00
25420;BME280;13354;48.174;11.566;2022-09-30T06:25:11;95032.03;;;9.09;100.00
25420;BME280;13354;48.174;11.566;2022-09-30T06:27:36;95037.72;;;9.13;100.00
25420;BME280;13354;48.174;11.566;2022-09-30T06:30:03;95046.72;;;9.25;100.00
25420;BME280;13354;48.174;11.566;2022-09-30T06:32:28;95038.56;;;9.27;100.00
25420;BME280;13354;48.174;11.566;2022-09-30T06:34:54;95041.66;;;9.37;99.93
25420;BME280;13354;48.174;11.566;2022-09-30T06:37:23;95045.31;;;9.36;99.24
25420;BME280;13354;48.174;11.566;2022-09-30T06:39:48;95047.34;;;9.40;98.79
25420;BME280;13354;48.174;11.566;2022-09-30T06:42:15;95049.22;;;9.47;98.46
25420;BME280;13354;48.174;11.566;2022-09-30T06:44:40;95044.94;;;9.59;98.38
25420;BME280;13354;48.174;11.566;2022-09-30T06:47:06;95060.59;;;9.67;97.89
25420;BME280;13354;48.174;11.566;2022-09-30T06:49:31;95067.13;;;9.71;97.29
25420;BME280;13354;48.174;11.566;2022-09-30T06:51:58;95072.03;;;9.81;97.38
25420;BME280;13354;48.174;11.566;2022-09-30T06:54:24;95074.47;;;9.89;97.32
25420;BME280;13354;48.174;11.566;2022-09-30T06:56:50;95074.91;;;10.06;96.85
25420;BME280;13354;48.174;11.566;2022-09-30T06:59:17;95075.06;;;10.04;94.96
25420;BME280;13354;48.174;11.566;2022-09-30T07:01:43;95070.59;;;10.18;94.46
25420;BME280;13354;48.174;11.566;2022-09-30T07:04:09;95065.31;;;10.38;95.09
25420;BME280;13354;48.174;11.566;2022-09-30T07:06:35;95076.72;;;10.45;96.27
25420;BME280;13354;48.174;11.566;2022-09-30T07:09:00;95071.00;;;10.55;94.47
25420;BME280;13354;48.174;11.566;2022-09-30T07:11:25;95075.88;;;10.64;93.96
25420;BME280;13354;48.174;11.566;2022-09-30T07:13:50;95079.53;;;10.77;91.62
25420;BME280;13354;48.174;11.566;2022-09-30T07:16:16;95072.34;;;10.97;89.34
25420;BME280;13354;48.174;11.566;2022-09-30T07:18:42;95075.56;;;10.99;87.02
25420;BME280;13354;48.174;11.566;2022-09-30T07:21:08;95090.91;;;10.84;85.24
25420;BME280;13354;48.174;11.566;2022-09-30T07:23:33;95080.91;;;10.93;85.61
25420;BME280;13354;48.174;11.566;2022-09-30T07:25:59;95082.16;;;10.90;86.73
25420;BME280;13354;48.174;11.566;2022-09-30T07:28:29;95090.72;;;10.79;88.30
25420;BME280;13354;48.174;11.566;2022-09-30T07:30:56;95086.03;;;10.81;88.31
25420;BME280;13354;48.174;11.566;2022-09-30T07:33:23;95090.50;;;10.87;88.03
25420;BME280;13354;48.174;11.566;2022-09-30T07:35:52;95095.97;;;10.85;88.47
25420;BME280;13354;48.174;11.566;2022-09-30T07:38:19;95081.13;;;10.91;89.44
25420;BME280;13354;48.174;11.566;2022-09-30T07:40:58;95083.09;;;11.09;88.78
25420;BME280;13354;48.174;11.566;2022-09-30T07:43:24;95080.22;;;11.10;88.31
25420;BME280;13354;48.174;11.566;2022-09-30T07:45:50;95079.44;;;11.03;87.85
25420;BME280;13354;48.174;11.566;2022-09-30T07:48:15;95077.75;;;11.16;85.00
25420;BME280;13354;48.174;11.566;2022-09-30T07:51:14;95078.09;;;11.32;83.12
25420;BME280;13354;48.174;11.566;2022-09-30T07:53:40;95083.22;;;11.27;82.71
25420;BME280;13354;48.174;11.566;2022-09-30T07:56:06;95083.41;;;11.26;83.69
25420;BME280;13354;48.174;11.566;2022-09-30T07:58:32;95096.06;;;11.30;83.39
25420;BME280;13354;48.174;11.566;2022-09-30T08:00:57;95096.81;;;11.37;83.54
25420;BME280;13354;48.174;11.566;2022-09-30T08:03:22;95095.19;;;11.36;83.97
25420;BME280;13354;48.174;11.566;2022-09-30T08:05:48;95101.53;;;11.35;83.02
25420;BME280;13354;48.174;11.566;2022-09-30T08:08:14;95104.44;;;11.27;83.16
25420;BME280;13354;48.174;11.566;2022-09-30T08:10:39;95107.63;;;11.36;82.72
25420;BME280;13354;48.174;11.566;2022-09-30T08:13:05;95106.97;;;11.47;82.99
25420;BME280;13354;48.174;11.566;2022-09-30T08:15:30;95110.84;;;11.45;82.82
25420;BME280;13354;48.174;11.566;2022-09-30T08:17:56;95106.91;;;11.60;82.62
25420;BME280;13354;48.174;11.566;2022-09-30T08:20:21;95112.56;;;11.71;81.29
25420;BME280;13354;48.174;11.566;2022-09-30T08:22:46;95118.50;;;11.66;79.28
25420;BME280;13354;48.174;11.566;2022-09-30T08:25:11;95112.75;;;11.76;80.58
25420;BME280;13354;48.174;11.566;2022-09-30T08:27:37;95114.88;;;11.99;80.88
25420;BME280;13354;48.174;11.566;2022-09-30T08:30:02;95113.03;;;11.99;78.45
25420;BME280;13354;48.174;11.566;2022-09-30T08:32:31;95116.81;;;12.42;78.13
25420;BME280;13354;48.174;11.566;2022-09-30T08:34:56;95114.16;;;12.42;77.43
25420;BME280;13354;48.174;11.566;2022-09-30T08:37:21;95104.88;;;13.13;72.76
25420;BME280;13354;48.174;11.566;2022-09-30T08:39:47;95115.91;;;13.35;71.44
25420;BME280;13354;48.174;11.566;2022-09-30T08:44:42;95119.94;;;13.74;71.45
25420;BME280;13354;48.174;11.566;2022-09-30T08:47:18;95129.53;;;13.75;69.80
25420;BME280;13354;48.174;11.566;2022-09-30T08:49:59;95130.88;;;13.96;68.56
25420;BME280;13354;48.174;11.566;2022-09-30T08:52:28;95131.66;;;13.85;67.71
25420;BME280;13354;48.174;11.566;2022-09-30T08:54:56;95131.59;;;13.73;68.13
25420;BME280;13354;48.174;11.566;2022-09-30T08:57:22;95134.25;;;13.73;67.58
25420;BME280;13354;48.174;11.566;2022-09-30T08:59:51;95138.91;;;13.77;67.71
25420;BME280;13354;48.174;11.566;2022-09-30T09:02:31;95142.88;;;13.87;68.65
25420;BME280;13354;48.174;11.566;2022-09-30T09:04:58;95146.28;;;13.75;67.60
25420;BME280;13354;48.174;11.566;2022-09-30T09:10:21;95149.78;;;13.58;68.79
25420;BME280;13354;48.174;11.566;2022-09-30T09:12:51;95156.03;;;13.51;70.58
25420;BME280;13354;48.174;11.566;2022-09-30T09:15:28;95159.25;;;13.53;69.44
25420;BME280;13354;48.174;11.566;2022-09-30T09:18:12;95168.63;;;13.56;70.17
25420;BME280;13354;48.174;11.566;2022-09-30T09:20:49;95173.94;;;13.74;68.41
25420;BME280;13354;48.174;11.566;2022-09-30T09:23:16;95175.16;;;13.90;67.66
25420;BME280;13354;48.174;11.566;2022-09-30T09:25:41;95167.97;;;14.21;66.57
25420;BME280;13354;48.174;11.566;2022-09-30T09:28:45;95178.06;;;14.61;63.52
25420;BME280;13354;48.174;11.566;2022-09-30T09:31:02;95177.25;;;14.60;64.86
25420;BME280;13354;48.174;11.566;2022-09-30T09:33:31;95185.03;;;14.62;65.69
25420;BME280;13354;48.174;11.566;2022-09-30T09:44:21;95174.59;;;14.18;65.38
25420;BME280;13354;48.174;11.566;2022-09-30T09:46:50;95173.53;;;14.19;65.68
25420;BME280;13354;48.174;11.566;2022-09-30T09:51:55;95168.56;;;14.11;68.09
25420;BME280;13354;48.174;11.566;2022-09-30T09:54:22;95173.66;;;14.24;66.92
25420;BME280;13354;48.174;11.566;2022-09-30T09:56:49;95169.06;;;14.01;67.15
25420;BME280;13354;48.174;11.566;2022-09-30T09:59:17;95171.97;;;14.00;67.74
25420;BME280;13354;48.174;11.566;2022-09-30T10:04:12;95160.69;;;14.16;67.17
25420;BME280;13354;48.174;11.566;2022-09-30T10:06:43;95162.38;;;14.41;67.77
25420;BME280;13354;48.174;11.566;2022-09-30T10:09:20;95175.91;;;14.81;68.09
25420;BME280;13354;48.174;11.566;2022-09-30T10:11:46;95176.47;;;14.71;66.73
25420;BME280;13354;48.174;11.566;2022-09-30T10:14:11;95170.00;;;14.79;64.38
25420;BME280;13354;48.174;11.566;2022-09-30T10:16:40;95179.63;;;14.92;64.02
25420;BME280;13354;48.174;11.566;2022-09-30T10:19:19;95187.16;;;15.18;64.56
25420;BME280;13354;48.174;11.566;2022-09-30T10:21:45;95189.25;;;15.28;62.08
25420;BME280;13354;48.174;11.566;2022-09-30T10:24:29;95189.94;;;15.23;60.85
25420;BME280;13354;48.174;11.566;2022-09-30T10:26:55;95181.13;;;15.23;61.69
25420;BME280;13354;48.174;11.566;2022-09-30T10:29:24;95192.59;;;15.23;62.73
25420;BME280;13354;48.174;11.566;2022-09-30T10:31:51;95184.25;;;15.20;63.16
25420;BME280;13354;48.174;11.566;2022-09-30T10:36:47;95169.81;;;15.80;60.83
25420;BME280;13354;48.174;11.566;2022-09-30T10:39:20;95177.50;;;16.05;61.90
25420;BME280;13354;48.174;11.566;2022-09-30T10:41:47;95181.63;;;16.24;61.01
25420;BME280;13354;48.174;11.566;2022-09-30T10:44:18;95182.84;;;16.33;61.32
25420;BME280;13354;48.174;11.566;2022-09-30T10:46:46;95178.56;;;16.49;61.36
25420;BME280;13354;48.174;11.566;2022-09-30T10:49:26;95183.25;;;16.42;61.40
25420;BME280;13354;48.174;11.566;2022-09-30T10:51:53;95187.56;;;16.43;61.27
25420;BME280;13354;48.174;11.566;2022-09-30T10:57:00;95201.72;;;15.63;60.40
25420;BME280;13354;48.174;11.566;2022-09-30T10:59:30;95205.56;;;15.67;62.36
25420;BME280;13354;48.174;11.566;2022-09-30T11:01:58;95201.19;;;15.37;62.87
25420;BME280;13354;48.174;11.566;2022-09-30T11:04:31;95207.22;;;15.33;62.73
25420;BME280;13354;48.174;11.566;2022-09-30T11:07:00;95203.03;;;14.90;61.92
25420;BME280;13354;48.174;11.566;2022-09-30T11:09:35;95197.25;;;14.93;61.65
25420;BME280;13354;48.174;11.566;2022-09-30T11:15:00;95204.59;;;14.56;63.73
25420;BME280;13354;48.174;11.566;2022-09-30T11:17:31;95214.00;;;14.58;63.94
25420;BME280;13354;48.174;11.566;2022-09-30T11:22:45;95214.94;;;14.45;64.87
25420;BME280;13354;48.174;11.566;2022-09-30T11:25:15;95219.66;;;14.32;66.48
25420;BME280;13354;48.174;11.566;2022-09-30T11:30:19;95232.28;;;14.06;67.79
25420;BME280;13354;48.174;11.566;2022-09-30T11:32:54;95235.31;;;14.10;67.21
25420;BME280;13354;48.174;11.566;2022-09-30T11:35:35;95229.88;;;13.86;68.86
25420;BME280;13354;48.174;11.566;2022-09-30T11:40:35;95231.88;;;13.72;68.95
25420;BME280;13354;48.174;11.566;2022-09-30T11:43:05;95229.66;;;13.69;68.79
25420;BME280;13354;48.174;11.566;2022-09-30T11:51:08;95230.47;;;13.51;69.51
25420;BME280;13354;48.174;11.566;2022-09-30T11:53:42;95225.28;;;13.38;70.09
25420;BME280;13354;48.174;11.566;2022-09-30T11:56:47;95224.09;;;13.34;69.11
25420;BME280;13354;48.174;11.566;2022-09-30T11:59:06;95227.94;;;13.38;69.73
25420;BME280;13354;48.174;11.566;2022-09-30T12:01:39;95217.59;;;13.30;70.13
25420;BME280;13354;48.174;11.566;2022-09-30T12:04:14;95229.19;;;13.36;70.45
25420;BME280;13354;48.174;11.566;2022-09-30T12:07:04;95230.66;;;13.32;71.14
25420;BME280;13354;48.174;11.566;2022-09-30T12:09:30;95219.66;;;13.28;71.59
25420;BME280;13354;48.174;11.566;2022-09-30T12:12:04;95227.88;;;13.26;71.95
25420;BME280;13354;48.174;11.566;2022-09-30T12:19:44;95221.41;;;13.59;71.41
25420;BME280;13354;48.174;11.566;2022-09-30T12:24:37;95221.44;;;13.89;71.35
25420;BME280;13354;48.174;11.566;2022-09-30T12:27:03;95219.94;;;14.12;69.30
25420;BME280;13354;48.174;11.566;2022-09-30T12:29:31;95212.25;;;14.34;68.21
25420;BME280;13354;48.174;11.566;2022-09-30T12:37:36;95218.22;;;14.47;67.82
25420;BME280;13354;48.174;11.566;2022-09-30T12:42:39;95222.22;;;14.38;68.33
25420;BME280;13354;48.174;11.566;2022-09-30T12:47:51;95209.50;;;14.40;67.91
25420;BME280;13354;48.174;11.566;2022-09-30T12:50:19;95219.88;;;14.60;66.90
25420;BME280;13354;48.174;11.566;2022-09-30T12:52:45;95220.59;;;14.67;66.83
25420;BME280;13354;48.174;11.566;2022-09-30T12:55:17;95221.56;;;14.85;66.46
25420;BME280;13354;48.174;11.566;2022-09-30T12:57:45;95225.13;;;14.67;65.21
25420;BME280;13354;48.174;11.566;2022-09-30T13:00:26;95223.50;;;14.66;66.13
25420;BME280;13354;48.174;11.566;2022-09-30T13:02:58;95222.66;;;14.54;66.59
25420;BME280;13354;48.174;11.566;2022-09-30T13:10:24;95228.78;;;14.54;66.46
25420;BME280;13354;48.174;11.566;2022-09-30T13:12:50;95217.72;;;14.39;66.29
25420;BME280;13354;48.174;11.566;2022-09-30T13:23:38;95215.09;;;14.50;67.62
25420;BME280;13354;48.174;11.566;2022-09-30T13:26:30;95213.34;;;14.44;66.98
25420;BME280;13354;48.174;11.566;2022-09-30T13:28:50;95218.50;;;14.39;66.85
25420;BME280;13354;48.174;11.566;2022-09-30T13:31:16;95219.19;;;14.53;67.97
25420;BME280;13354;48.174;11.566;2022-09-30T13:33:45;95209.63;;;14.45;67.31
25420;BME280;13354;48.174;11.566;2022-09-30T13:36:15;95212.22;;;14.52;68.54
25420;BME280;13354;48.174;11.566;2022-09-30T13:38:41;95214.09;;;14.63;68.20
25420;BME280;13354;48.174;11.566;2022-09-30T13:41:09;95213.50;;;14.61;65.84
25420;BME280;13354;48.174;11.566;2022-09-30T13:46:11;95222.28;;;14.50;66.67
25420;BME280;13354;48.174;11.566;2022-09-30T13:48:37;95219.69;;;14.62;67.20
25420;BME280;13354;48.174;11.566;2022-09-30T13:51:05;95220.69;;;14.61;68.43
25420;BME280;13354;48.174;11.566;2022-09-30T13:53:38;95219.88;;;14.60;67.93
25420;BME280;13354;48.174;11.566;2022-09-30T13:56:46;95217.00;;;14.62;67.64
25420;BME280;13354;48.174;11.566;2022-09-30T14:04:02;95212.69;;;14.61;65.49
25420;BME280;13354;48.174;11.566;2022-09-30T14:06:51;95216.66;;;14.58;66.40
25420;BME280;13354;48.174;11.566;2022-09-30T14:09:30;95224.69;;;14.82;65.43
25420;BME280;13354;48.174;11.566;2022-09-30T14:22:43;95220.41;;;14.81;67.42
25420;BME280;13354;48.174;11.566;2022-09-30T14:25:13;95218.06;;;14.72;68.04
25420;BME280;13354;48.174;11.566;2022-09-30T14:30:14;95215.31;;;14.91;67.41
25420;BME280;13354;48.174;11.566;2022-09-30T14:35:11;95225.06;;;15.09;64.99
25420;BME280;13354;48.174;11.566;2022-09-30T14:37:41;95223.44;;;14.96;66.18
25420;BME280;13354;48.174;11.566;2022-09-30T14:40:10;95227.25;;;14.88;66.21
25420;BME280;13354;48.174;11.566;2022-09-30T14:42:36;95230.44;;;14.67;68.02
25420;BME280;13354;48.174;11.566;2022-09-30T14:45:04;95238.53;;;14.60;67.09
25420;BME280;13354;48.174;11.566;2022-09-30T14:47:41;95235.88;;;14.60;67.34
25420;BME280;13354;48.174;11.566;2022-09-30T14:50:10;95239.00;;;14.69;67.19
25420;BME280;13354;48.174;11.566;2022-09-30T14:52:42;95240.03;;;14.56;68.73
25420;BME280;13354;48.174;11.566;2022-09-30T14:57:43;95239.59;;;14.41;67.45
25420;BME280;13354;48.174;11.566;2022-09-30T15:00:18;95239.00;;;14.39;68.31
25420;BME280;13354;48.174;11.566;2022-09-30T15:02:43;95242.59;;;14.33;68.73
25420;BME280;13354;48.174;11.566;2022-09-30T15:05:11;95251.72;;;14.25;69.15
25420;BME280;13354;48.174;11.566;2022-09-30T15:07:41;95245.66;;;14.18;68.36
25420;BME280;13354;48.174;11.566;2022-09-30T15:10:12;95244.81;;;14.17;68.33
25420;BME280;13354;48.174;11.566;2022-09-30T15:12:40;95238.28;;;14.01;68.45
25420;BME280;13354;48.174;11.566;2022-09-30T15:15:21;95248.78;;;13.96;68.66
25420;BME280;13354;48.174;11.566;2022-09-30T15:17:47;95244.28;;;13.97;68.18
25420;BME280;13354;48.174;11.566;2022-09-30T15:20:31;95255.06;;;14.02;67.98
25420;BME280;13354;48.174;11.566;2022-09-30T15:22:58;95244.28;;;13.97;69.11